Time;durP1;ratioP1;P1;durP2;ratioP2;P2;SDS_P1;SDS_P2;PMS_P1;PMS_P2;Temp;Humidity;BMP_temperature;BMP_pressure;BME280_temperature;BME280_humidity;BME280_pressure;Samples;Min_cycle;Max_cycle;Signal;HPM_P1;HPM_P2
2022/05/30 00:00:38;;;;;;;7.80;2.33;;;9.80;99.90;;;;;;5092311;28;20217;-71
2022/05/30 00:03:06;;;;;;;10.10;3.07;;;9.80;99.90;;;;;;5092736;28;20216;-71
2022/05/30 00:05:33;;;;;;;10.97;3.57;;;9.90;99.90;;;;;;5092729;28;20193;-70
2022/05/30 00:08:02;;;;;;;7.80;2.10;;;9.80;99.90;;;;;;5093169;28;20550;-70
2022/05/30 00:10:29;;;;;;;10.67;2.77;;;9.90;99.90;;;;;;5092217;28;20194;-71
2022/05/30 00:12:56;;;;;;;11.50;2.63;;;9.80;99.90;;;;;;5092258;28;20194;-71
2022/05/30 00:15:24;;;;;;;11.83;3.17;;;9.90;99.90;;;;;;5092761;28;20571;-70
2022/05/30 00:17:55;;;;;;;8.07;2.83;;;9.90;99.90;;;;;;5092986;28;20645;-71
2022/05/30 00:20:22;;;;;;;8.90;2.70;;;9.90;99.90;;;;;;5091876;28;20284;-71
2022/05/30 00:22:49;;;;;;;10.00;2.70;;;9.90;99.90;;;;;;5092417;28;20193;-71
2022/05/30 00:25:18;;;;;;;6.73;2.83;;;9.90;99.90;;;;;;5092300;28;20209;-70
2022/05/30 00:27:45;;;;;;;11.07;3.03;;;9.90;99.90;;;;;;5092845;28;20198;-71
2022/05/30 00:30:13;;;;;;;12.27;3.23;;;9.90;99.90;;;;;;5091941;28;20201;-70
2022/05/30 00:32:41;;;;;;;9.97;2.70;;;9.80;99.90;;;;;;5093128;28;20530;-71
2022/05/30 00:35:09;;;;;;;13.73;3.70;;;9.80;99.90;;;;;;5092804;28;20563;-70
2022/05/30 00:37:36;;;;;;;12.30;3.13;;;9.70;99.90;;;;;;5092532;28;20694;-71
2022/05/30 00:40:03;;;;;;;8.27;2.20;;;9.70;99.90;;;;;;5091783;28;20213;-70
2022/05/30 00:42:31;;;;;;;12.37;3.13;;;9.80;99.90;;;;;;5092543;28;20217;-70
2022/05/30 00:44:59;;;;;;;9.37;2.67;;;9.80;99.90;;;;;;5092917;28;20205;-70
2022/05/30 00:47:26;;;;;;;8.53;2.80;;;9.90;99.90;;;;;;5092734;28;20201;-70
2022/05/30 00:49:55;;;;;;;9.43;2.90;;;9.80;99.90;;;;;;5091374;28;20262;-70
2022/05/30 00:52:26;;;;;;;14.27;3.10;;;9.80;99.90;;;;;;5092206;28;20190;-71
2022/05/30 00:54:58;;;;;;;9.17;2.83;;;9.80;99.90;;;;;;5092731;28;20659;-70
2022/05/30 00:57:28;;;;;;;9.33;3.07;;;9.80;99.90;;;;;;5091907;28;20259;-71
2022/05/30 00:59:59;;;;;;;8.97;2.73;;;9.70;99.90;;;;;;5086422;28;20200;-71
2022/05/30 01:02:27;;;;;;;8.30;3.57;;;9.60;99.90;;;;;;5091681;28;20253;-71
2022/05/30 01:07:40;;;;;;;7.83;3.80;;;9.70;99.90;;;;;;5090776;28;20228;-71
2022/05/30 01:10:09;;;;;;;9.90;2.80;;;9.70;99.90;;;;;;5091012;28;20205;-71
2022/05/30 01:12:39;;;;;;;9.20;3.33;;;9.70;99.90;;;;;;5091804;28;20205;-71
2022/05/30 01:15:13;;;;;;;10.17;3.27;;;9.70;99.90;;;;;;5091407;28;20206;-71
2022/05/30 01:17:52;;;;;;;11.73;2.97;;;9.80;99.90;;;;;;5091615;28;20233;-71
2022/05/30 01:20:29;;;;;;;11.27;3.93;;;9.80;99.90;;;;;;5085910;28;20212;-71
2022/05/30 01:23:39;;;;;;;11.83;3.10;;;9.60;99.90;;;;;;5084257;28;20310;-71
2022/05/30 01:26:26;;;;;;;19.13;3.70;;;9.70;99.90;;;;;;5074301;28;20259;-71
2022/05/30 01:29:01;;;;;;;10.53;3.37;;;9.70;99.90;;;;;;5095505;28;20673;-71
2022/05/30 01:31:29;;;;;;;7.97;3.20;;;9.70;99.90;;;;;;5078507;28;20202;-71
2022/05/30 01:33:56;;;;;;;9.83;3.30;;;9.70;99.90;;;;;;5095725;28;20212;-71
2022/05/30 01:36:25;;;;;;;11.40;3.13;;;9.70;99.90;;;;;;5096494;28;20214;-71
2022/05/30 01:38:52;;;;;;;10.53;3.53;;;9.70;99.90;;;;;;5095371;28;20202;-71
2022/05/30 01:41:19;;;;;;;7.20;3.10;;;9.70;99.90;;;;;;5096016;28;20229;-71
2022/05/30 01:43:46;;;;;;;9.00;3.17;;;9.50;99.90;;;;;;5096253;28;20212;-71
2022/05/30 01:46:16;;;;;;;15.13;3.20;;;9.60;99.90;;;;;;5095805;28;20205;-71
2022/05/30 01:48:45;;;;;;;8.77;3.33;;;9.60;99.90;;;;;;5095822;28;20202;-71
2022/05/30 01:51:12;;;;;;;11.43;3.50;;;9.70;99.90;;;;;;5095270;28;20243;-71
2022/05/30 01:53:39;;;;;;;6.90;2.83;;;9.70;99.90;;;;;;5096138;28;20297;-71
2022/05/30 01:56:06;;;;;;;7.40;3.30;;;9.70;99.90;;;;;;5094981;28;20201;-71
2022/05/30 01:58:33;;;;;;;9.37;3.60;;;9.60;99.90;;;;;;5095631;28;20197;-71
2022/05/30 02:01:03;;;;;;;7.73;3.23;;;9.70;99.90;;;;;;5093725;28;20186;-71
2022/05/30 02:03:33;;;;;;;7.23;3.73;;;9.70;99.90;;;;;;5095802;28;20212;-71
2022/05/30 02:06:01;;;;;;;8.60;2.97;;;9.70;99.90;;;;;;5095197;28;20703;-71
2022/05/30 02:08:28;;;;;;;9.70;3.03;;;9.60;99.90;;;;;;5095582;28;20221;-71
2022/05/30 02:10:55;;;;;;;4.30;2.47;;;9.60;99.90;;;;;;5094394;28;20201;-71
2022/05/30 02:13:22;;;;;;;15.57;3.00;;;9.60;99.90;;;;;;5095201;28;20563;-71
2022/05/30 02:18:34;;;;;;;22.20;4.63;;;9.60;99.90;;;;;;5094847;28;20209;-71
2022/05/30 02:21:01;;;;;;;7.77;3.20;;;9.60;99.90;;;;;;5093988;28;20197;-71
2022/05/30 02:23:28;;;;;;;10.37;2.50;;;9.60;99.90;;;;;;5095054;28;20202;-71
2022/05/30 02:25:55;;;;;;;12.90;2.97;;;9.70;99.90;;;;;;5094801;28;20210;-71
2022/05/30 02:28:22;;;;;;;9.50;3.27;;;9.60;99.90;;;;;;5094543;28;20205;-71
2022/05/30 02:30:49;;;;;;;5.67;2.37;;;9.70;99.90;;;;;;5093618;28;20545;-68
2022/05/30 02:38:45;;;;;;;11.40;2.27;;;9.60;99.90;;;;;;5075027;28;20340;-68
2022/05/30 02:41:12;;;;;;;12.27;2.57;;;9.60;99.90;;;;;;5078003;28;20213;-68
2022/05/30 02:43:39;;;;;;;12.93;3.37;;;9.60;99.90;;;;;;5094631;28;20201;-68
2022/05/30 02:46:06;;;;;;;10.83;2.90;;;9.50;99.90;;;;;;5094324;28;20644;-68
2022/05/30 02:48:33;;;;;;;8.00;2.70;;;9.50;99.90;;;;;;5094933;28;20206;-68
2022/05/30 02:51:02;;;;;;;11.13;3.00;;;9.40;99.90;;;;;;5093874;28;20698;-68
2022/05/30 02:53:29;;;;;;;7.87;2.50;;;9.40;99.90;;;;;;5094368;28;20202;-68
2022/05/30 02:55:56;;;;;;;7.17;2.50;;;9.40;99.90;;;;;;5094012;28;20200;-68
2022/05/30 02:58:22;;;;;;;9.17;2.90;;;9.40;99.90;;;;;;5094002;28;20536;-68
2022/05/30 03:00:49;;;;;;;8.43;2.33;;;9.50;99.90;;;;;;5093981;28;20640;-68
2022/05/30 03:03:17;;;;;;;17.77;3.47;;;9.50;99.90;;;;;;5093814;28;20228;-68
2022/05/30 03:05:45;;;;;;;7.83;2.50;;;9.50;99.90;;;;;;5094305;28;20200;-68
2022/05/30 03:08:13;;;;;;;13.80;2.50;;;9.60;99.90;;;;;;5094287;28;20216;-68
2022/05/30 03:10:40;;;;;;;12.33;2.97;;;9.40;99.90;;;;;;5092305;28;20643;-68
2022/05/30 03:13:08;;;;;;;9.53;2.33;;;9.50;99.90;;;;;;5093332;28;20194;-68
2022/05/30 03:15:35;;;;;;;8.23;2.20;;;9.50;99.90;;;;;;5093695;28;20197;-68
2022/05/30 03:18:02;;;;;;;9.60;2.50;;;9.50;99.90;;;;;;5093859;28;20202;-68
2022/05/30 03:20:29;;;;;;;8.40;2.60;;;9.50;99.90;;;;;;5093708;28;20197;-68
2022/05/30 03:22:57;;;;;;;10.27;3.10;;;9.50;99.90;;;;;;5073703;28;20222;-68
2022/05/30 03:25:26;;;;;;;9.07;2.87;;;9.50;99.90;;;;;;5073193;28;20212;-68
2022/05/30 03:27:53;;;;;;;10.23;2.40;;;9.50;99.90;;;;;;5093312;28;20201;-69
2022/05/30 03:30:21;;;;;;;7.93;2.20;;;9.50;99.90;;;;;;5092677;28;20208;-68
2022/05/30 03:32:47;;;;;;;13.07;3.37;;;9.50;99.90;;;;;;5093398;28;20208;-69
2022/05/30 03:35:15;;;;;;;9.33;3.67;;;9.50;99.90;;;;;;5093519;28;20213;-68
2022/05/30 03:37:43;;;;;;;7.03;2.10;;;9.50;99.90;;;;;;5093460;28;20296;-69
2022/05/30 03:40:13;;;;;;;12.43;2.77;;;9.50;99.90;;;;;;5092788;28;20215;-69
2022/05/30 03:42:41;;;;;;;7.70;3.60;;;9.50;99.90;;;;;;5093058;28;20217;-69
2022/05/30 03:45:10;;;;;;;9.63;3.07;;;9.50;99.90;;;;;;5093517;28;20224;-69
2022/05/30 03:47:38;;;;;;;7.97;2.60;;;9.50;99.90;;;;;;5093600;28;20202;-68
2022/05/30 03:50:07;;;;;;;6.30;1.90;;;9.70;99.90;;;;;;5092221;28;20228;-69
2022/05/30 03:52:34;;;;;;;7.33;2.63;;;9.60;99.90;;;;;;5093633;28;20205;-69
2022/05/30 03:55:03;;;;;;;5.50;2.30;;;9.60;99.90;;;;;;5093093;28;20655;-69
2022/05/30 03:57:30;;;;;;;4.83;2.10;;;9.60;99.90;;;;;;5093288;28;20259;-68
2022/05/30 03:59:58;;;;;;;7.57;3.13;;;9.50;99.90;;;;;;5092613;28;20193;-68
2022/05/30 04:02:26;;;;;;;9.93;2.70;;;9.60;99.90;;;;;;5093198;28;20243;-68
2022/05/30 04:04:53;;;;;;;10.70;2.60;;;9.70;99.90;;;;;;5093558;28;20659;-68
2022/05/30 04:07:20;;;;;;;9.57;2.57;;;9.60;99.90;;;;;;5093572;28;20662;-69
2022/05/30 04:09:47;;;;;;;11.47;2.70;;;9.70;99.90;;;;;;5092206;28;20210;-69
2022/05/30 04:12:14;;;;;;;7.90;3.07;;;9.70;99.90;;;;;;5093294;28;20200;-69
2022/05/30 04:14:40;;;;;;;9.90;2.20;;;9.70;99.90;;;;;;5093457;28;20566;-68
2022/05/30 04:17:09;;;;;;;9.53;2.57;;;9.70;99.90;;;;;;5093545;28;20677;-69
2022/05/30 04:19:37;;;;;;;7.13;2.40;;;9.80;99.90;;;;;;5092193;28;20205;-69
2022/05/30 04:22:04;;;;;;;10.17;2.83;;;9.90;99.90;;;;;;5093033;28;20256;-69
2022/05/30 04:24:31;;;;;;;10.63;3.13;;;9.90;99.90;;;;;;5092734;28;20201;-68
2022/05/30 04:26:58;;;;;;;6.53;2.50;;;9.90;99.90;;;;;;5092744;28;20572;-68
2022/05/30 04:29:24;;;;;;;7.07;2.43;;;10.00;99.90;;;;;;5083768;28;20202;-68
2022/05/30 04:31:51;;;;;;;6.30;2.60;;;10.10;99.90;;;;;;5072689;28;20194;-69
2022/05/30 04:34:20;;;;;;;8.70;2.60;;;10.10;99.90;;;;;;5085654;28;20205;-68
2022/05/30 04:36:46;;;;;;;9.30;3.30;;;10.10;99.90;;;;;;5092877;28;20260;-69
2022/05/30 04:39:14;;;;;;;8.87;3.03;;;10.20;99.90;;;;;;5091834;28;20201;-68
2022/05/30 04:41:41;;;;;;;6.40;2.20;;;10.10;99.90;;;;;;5091822;28;20209;-68
2022/05/30 04:44:08;;;;;;;9.03;3.03;;;10.10;99.90;;;;;;5092578;28;20209;-69
2022/05/30 04:46:35;;;;;;;7.27;3.00;;;10.30;99.90;;;;;;5092664;28;20293;-69
2022/05/30 04:49:02;;;;;;;6.73;2.53;;;10.30;99.90;;;;;;5091996;28;20292;-69
2022/05/30 04:51:30;;;;;;;8.53;2.60;;;10.30;99.90;;;;;;5092769;28;20208;-68
2022/05/30 04:53:57;;;;;;;23.93;3.27;;;10.20;99.90;;;;;;5092685;28;20202;-69
2022/05/30 04:56:24;;;;;;;9.90;3.10;;;10.40;99.90;;;;;;5092318;28;20201;-68
2022/05/30 04:58:52;;;;;;;7.63;2.53;;;10.50;99.90;;;;;;5093079;28;20201;-68
2022/05/30 05:01:19;;;;;;;8.30;2.20;;;10.40;99.90;;;;;;5099042;28;20201;-68
2022/05/30 05:03:46;;;;;;;7.03;2.50;;;10.40;99.90;;;;;;5099599;28;20228;-68
2022/05/30 05:06:15;;;;;;;12.97;2.67;;;10.40;99.90;;;;;;5099104;28;20209;-69
2022/05/30 05:08:55;;;;;;;12.33;2.70;;;10.50;99.90;;;;;;5098709;28;20206;-69
2022/05/30 05:11:24;;;;;;;9.70;2.50;;;10.70;99.90;;;;;;5098555;28;20547;-68
2022/05/30 05:13:51;;;;;;;10.07;2.50;;;10.60;99.90;;;;;;5098821;28;20201;-68
2022/05/30 05:16:20;;;;;;;6.50;2.40;;;10.70;99.90;;;;;;5098527;28;20205;-69
2022/05/30 05:18:46;;;;;;;10.03;2.83;;;10.70;99.90;;;;;;5098173;28;20213;-68
2022/05/30 05:21:18;;;;;;;9.30;3.50;;;10.50;99.90;;;;;;5106944;28;20220;-69
2022/05/30 05:23:45;;;;;;;10.80;2.83;;;10.70;99.90;;;;;;5098193;28;20217;-68
2022/05/30 05:26:14;;;;;;;11.27;2.90;;;10.60;99.90;;;;;;5099273;28;20209;-68
2022/05/30 05:28:40;;;;;;;9.67;2.57;;;10.70;99.90;;;;;;5099180;28;20659;-69
2022/05/30 05:31:08;;;;;;;8.47;2.87;;;10.80;99.90;;;;;;5098308;28;20212;-68
2022/05/30 05:33:36;;;;;;;8.73;2.40;;;10.80;99.90;;;;;;5099125;28;20221;-68
2022/05/30 05:36:04;;;;;;;8.13;2.80;;;10.80;99.90;;;;;;5098759;28;20205;-68
2022/05/30 05:38:31;;;;;;;5.03;2.40;;;10.80;99.90;;;;;;5098823;28;20213;-68
2022/05/30 05:40:58;;;;;;;11.10;3.17;;;10.60;99.90;;;;;;5098290;28;20217;-68
2022/05/30 05:43:26;;;;;;;9.63;2.40;;;10.80;99.90;;;;;;5098894;28;20308;-68
2022/05/30 05:45:54;;;;;;;10.23;2.47;;;10.80;99.90;;;;;;5098632;28;20240;-68
2022/05/30 05:48:21;;;;;;;11.67;2.40;;;10.80;99.90;;;;;;5098776;28;20215;-68
2022/05/30 05:50:48;;;;;;;13.87;3.23;;;10.90;99.90;;;;;;5098090;28;20300;-68
2022/05/30 05:53:15;;;;;;;7.20;2.50;;;10.90;99.90;;;;;;5098131;28;20201;-68
2022/05/30 05:55:42;;;;;;;10.97;2.67;;;10.80;99.90;;;;;;5097728;28;20197;-71
2022/05/30 05:58:09;;;;;;;7.90;2.80;;;10.90;99.90;;;;;;5098402;28;20209;-71
2022/05/30 06:00:38;;;;;;;11.70;3.10;;;10.90;99.90;;;;;;5097868;28;20205;-71
2022/05/30 06:03:05;;;;;;;10.23;2.70;;;10.80;99.90;;;;;;5098877;28;20236;-71
2022/05/30 06:05:32;;;;;;;7.27;2.77;;;10.70;99.90;;;;;;5098394;28;20202;-71
2022/05/30 06:08:00;;;;;;;9.13;2.50;;;10.80;99.90;;;;;;5098922;28;20197;-72
2022/05/30 06:10:27;;;;;;;10.43;2.73;;;10.80;99.90;;;;;;5096160;28;20210;-71
2022/05/30 06:12:54;;;;;;;8.40;2.93;;;11.00;99.90;;;;;;5094605;28;20565;-71
2022/05/30 06:15:22;;;;;;;8.77;2.73;;;10.90;99.90;;;;;;5095524;28;20209;-72
2022/05/30 06:17:50;;;;;;;9.07;2.70;;;10.90;99.90;;;;;;5095207;28;20202;-72
2022/05/30 06:20:18;;;;;;;14.20;3.80;;;10.80;99.90;;;;;;5079683;28;20255;-71
2022/05/30 06:22:45;;;;;;;9.43;4.10;;;10.70;99.90;;;;;;5094652;28;20228;-71
2022/05/30 06:25:13;;;;;;;7.27;2.70;;;10.70;99.90;;;;;;5094577;28;20554;-71
2022/05/30 06:27:39;;;;;;;13.97;3.20;;;10.90;99.90;;;;;;5095408;28;20202;-72
2022/05/30 06:30:08;;;;;;;8.40;2.60;;;10.80;99.90;;;;;;5094615;28;20730;-71
2022/05/30 06:32:34;;;;;;;8.47;2.60;;;10.70;99.90;;;;;;5095112;28;20210;-72
2022/05/30 06:35:03;;;;;;;10.50;2.40;;;10.70;99.90;;;;;;5095228;28;20205;-72
2022/05/30 06:37:30;;;;;;;10.70;2.80;;;10.70;99.90;;;;;;5095002;28;20206;-72
2022/05/30 06:39:56;;;;;;;7.90;2.67;;;10.90;99.90;;;;;;5094209;28;20221;-71
2022/05/30 06:42:24;;;;;;;6.40;2.70;;;11.10;99.90;;;;;;5094544;28;20851;-71
2022/05/30 06:44:51;;;;;;;8.07;2.80;;;11.10;99.90;;;;;;5095154;28;20201;-72
2022/05/30 06:47:18;;;;;;;8.07;2.97;;;11.30;99.90;;;;;;5094479;28;20206;-72
2022/05/30 06:49:46;;;;;;;10.23;2.40;;;11.20;99.90;;;;;;5094364;28;20208;-72
2022/05/30 06:52:14;;;;;;;10.77;3.30;;;11.10;99.90;;;;;;5094885;28;20220;-72
2022/05/30 06:54:41;;;;;;;9.50;2.90;;;11.20;99.90;;;;;;5094750;28;20685;-72
2022/05/30 06:59:52;;;;;;;6.37;2.83;;;11.40;99.90;;;;;;5094075;28;20201;-72
2022/05/30 07:02:19;;;;;;;14.83;3.20;;;11.40;99.90;;;;;;5094271;28;20201;-71
2022/05/30 07:04:47;;;;;;;8.43;3.00;;;11.50;99.90;;;;;;5094975;28;20193;-71
2022/05/30 07:07:15;;;;;;;9.47;3.10;;;11.50;99.90;;;;;;5093999;28;20245;-71
2022/05/30 07:09:42;;;;;;;8.00;2.83;;;11.70;99.90;;;;;;5093763;28;20213;-71
2022/05/30 07:12:10;;;;;;;10.63;3.13;;;11.70;99.90;;;;;;5094298;28;20241;-71
2022/05/30 07:14:38;;;;;;;8.07;2.30;;;11.60;99.90;;;;;;5093745;28;20201;-71
2022/05/30 07:17:06;;;;;;;8.57;2.60;;;11.90;99.90;;;;;;5094430;28;20671;-71
2022/05/30 07:19:33;;;;;;;8.33;2.40;;;12.00;99.90;;;;;;5093161;28;20815;-71
2022/05/30 07:22:01;;;;;;;8.43;2.90;;;12.00;99.90;;;;;;5094075;28;20202;-71
2022/05/30 07:24:29;;;;;;;10.50;3.47;;;12.10;99.90;;;;;;5094215;28;20557;-71
2022/05/30 07:26:56;;;;;;;11.30;3.00;;;12.30;99.90;;;;;;5093769;28;20209;-71
2022/05/30 07:29:26;;;;;;;8.40;2.70;;;12.30;99.90;;;;;;5093440;28;20205;-71
2022/05/30 07:31:58;;;;;;;9.07;2.47;;;12.20;99.90;;;;;;5093658;28;20603;-72
2022/05/30 07:34:25;;;;;;;6.30;2.63;;;12.30;99.90;;;;;;5093417;28;20202;-72
2022/05/30 07:36:53;;;;;;;8.60;2.70;;;12.40;99.90;;;;;;5093977;28;20580;-72
2022/05/30 07:39:20;;;;;;;8.70;2.97;;;12.50;99.90;;;;;;5092559;28;20201;-71
2022/05/30 07:41:48;;;;;;;9.20;2.67;;;12.50;99.90;;;;;;5092933;28;20224;-72
2022/05/30 07:44:15;;;;;;;6.37;2.67;;;12.30;99.90;;;;;;5094005;28;20575;-72
2022/05/30 07:46:44;;;;;;;7.57;2.20;;;12.20;99.90;;;;;;5092593;28;20262;-72
2022/05/30 07:49:12;;;;;;;7.23;2.27;;;12.30;99.90;;;;;;5092911;28;20210;-72
2022/05/30 07:51:39;;;;;;;4.60;2.53;;;12.50;99.90;;;;;;5093694;28;20237;-72
2022/05/30 07:54:06;;;;;;;5.37;2.60;;;12.80;99.90;;;;;;5093306;28;20204;-72
2022/05/30 07:56:33;;;;;;;8.30;2.13;;;12.80;99.90;;;;;;5093512;28;20209;-72
2022/05/30 07:59:02;;;;;;;9.50;2.37;;;12.70;99.90;;;;;;5093008;28;20213;-72
2022/05/30 08:01:29;;;;;;;6.87;2.40;;;12.60;99.90;;;;;;5092943;28;20241;-72
2022/05/30 08:03:56;;;;;;;6.63;2.33;;;12.60;99.90;;;;;;5093534;28;20229;-72
2022/05/30 08:06:24;;;;;;;6.10;2.20;;;12.50;99.90;;;;;;5093305;28;20209;-72
2022/05/30 08:08:52;;;;;;;6.77;2.13;;;12.60;99.90;;;;;;5092777;28;20201;-72
2022/05/30 08:11:19;;;;;;;8.23;2.57;;;12.40;99.90;;;;;;5092643;28;20581;-72
2022/05/30 08:13:47;;;;;;;8.20;2.73;;;12.40;99.90;;;;;;5092735;28;20210;-71
2022/05/30 08:16:16;;;;;;;6.27;2.10;;;12.20;99.90;;;;;;5093387;28;20202;-72
2022/05/30 08:18:43;;;;;;;5.13;2.00;;;12.10;99.90;;;;;;5092892;28;20209;-72
2022/05/30 08:21:11;;;;;;;5.43;2.33;;;12.30;99.90;;;;;;5093153;28;20205;-72
2022/05/30 08:23:37;;;;;;;7.97;2.07;;;12.20;99.90;;;;;;5093081;28;20225;-71
2022/05/30 08:26:04;;;;;;;6.90;2.43;;;12.00;99.90;;;;;;5092882;28;20205;-72
2022/05/30 08:28:33;;;;;;;7.17;2.50;;;12.10;99.90;;;;;;5092913;28;20197;-72
2022/05/30 08:31:00;;;;;;;10.77;2.30;;;12.00;99.90;;;;;;5092299;28;20644;-71
2022/05/30 08:33:28;;;;;;;7.03;2.10;;;11.80;99.90;;;;;;5092883;28;20679;-71
2022/05/30 08:36:01;;;;;;;7.37;2.20;;;12.00;99.90;;;;;;5092422;28;20202;-71
2022/05/30 08:38:33;;;;;;;8.03;2.27;;;11.70;99.90;;;;;;5092835;28;20197;-71
2022/05/30 08:43:49;;;;;;;6.23;2.20;;;11.90;99.90;;;;;;5092859;28;20236;-71
2022/05/30 08:46:31;;;;;;;6.27;2.37;;;11.90;99.90;;;;;;5092265;28;20213;-71
2022/05/30 08:49:13;;;;;;;6.43;2.00;;;11.90;99.90;;;;;;5091484;28;20201;-72
2022/05/30 08:52:13;;;;;;;5.47;1.90;;;11.80;99.90;;;;;;5092169;28;20202;-72
2022/05/30 08:55:00;;;;;;;10.57;2.17;;;11.90;99.90;;;;;;5092226;28;20197;-72
2022/05/30 08:57:37;;;;;;;5.60;2.23;;;11.80;99.90;;;;;;5092340;28;20201;-71
2022/05/30 09:00:12;;;;;;;10.03;2.83;;;11.90;99.90;;;;;;5074044;28;20213;-71
2022/05/30 09:02:45;;;;;;;5.73;2.10;;;11.70;99.90;;;;;;5092468;28;20197;-71
2022/05/30 09:05:17;;;;;;;5.83;2.20;;;11.80;99.90;;;;;;5092930;28;20224;-71
2022/05/30 09:07:49;;;;;;;8.67;2.10;;;11.80;99.90;;;;;;5092481;28;20205;-71
2022/05/30 09:10:22;;;;;;;4.57;1.97;;;12.00;99.90;;;;;;5094471;28;20288;-71
2022/05/30 09:12:54;;;;;;;3.83;1.30;;;12.00;99.90;;;;;;5092050;28;20552;-72
2022/05/30 09:15:24;;;;;;;3.80;1.43;;;12.10;97.50;;;;;;5092011;28;20301;-72
2022/05/30 09:17:57;;;;;;;3.57;1.70;;;12.20;98.20;;;;;;5092002;28;20491;-72
2022/05/30 09:20:25;;;;;;;6.40;1.57;;;12.40;99.90;;;;;;5099034;28;20698;-72
2022/05/30 09:22:53;;;;;;;4.57;1.83;;;12.40;99.90;;;;;;5091919;28;20202;-72
2022/05/30 09:28:07;;;;;;;5.67;1.50;;;12.40;97.70;;;;;;5092540;28;20216;-71
2022/05/30 09:30:41;;;;;;;6.43;1.90;;;12.40;93.20;;;;;;5091824;28;20308;-72
2022/05/30 09:33:16;;;;;;;3.50;1.40;;;12.80;95.20;;;;;;5092056;28;20209;-72
2022/05/30 09:35:44;;;;;;;6.73;1.83;;;12.70;93.20;;;;;;5091791;28;20300;-71
2022/05/30 09:38:18;;;;;;;8.13;1.83;;;12.90;94.60;;;;;;5092268;28;20220;-72
2022/05/30 09:40:51;;;;;;;8.20;1.50;;;12.70;92.10;;;;;;5091144;28;20663;-72
2022/05/30 09:43:24;;;;;;;5.80;1.30;;;12.90;92.30;;;;;;5092449;28;20206;-72
2022/05/30 09:45:52;;;;;;;7.53;1.63;;;13.00;97.20;;;;;;5094201;28;20220;-72
2022/05/30 09:48:19;;;;;;;4.57;1.93;;;13.00;96.10;;;;;;5096402;28;20206;-72
2022/05/30 09:50:50;;;;;;;5.67;1.70;;;12.90;94.30;;;;;;5095021;28;20255;-72
2022/05/30 09:53:43;;;;;;;6.77;1.50;;;13.00;93.90;;;;;;5096086;28;20212;-72
2022/05/30 09:56:13;;;;;;;5.57;1.90;;;12.80;93.80;;;;;;5095763;28;20247;-72
2022/05/30 09:58:43;;;;;;;10.47;2.57;;;12.70;95.00;;;;;;5095433;28;20239;-71
2022/05/30 10:01:10;;;;;;;4.10;1.43;;;12.80;97.00;;;;;;5095193;28;20259;-72
2022/05/30 10:03:40;;;;;;;8.97;2.23;;;12.60;98.30;;;;;;5095028;28;20834;-72
2022/05/30 10:06:17;;;;;;;7.53;1.87;;;12.70;98.00;;;;;;5095260;28;20213;-72
2022/05/30 10:08:46;;;;;;;5.13;1.90;;;12.90;99.90;;;;;;5095580;28;20659;-72
2022/05/30 10:11:30;;;;;;;3.47;1.53;;;12.80;99.90;;;;;;5095442;28;20209;-72
2022/05/30 10:13:57;;;;;;;8.20;2.20;;;12.70;99.90;;;;;;5095787;28;20202;-72
2022/05/30 10:16:33;;;;;;;4.60;1.57;;;12.60;99.90;;;;;;5095252;28;20202;-72
2022/05/30 10:19:04;;;;;;;3.80;1.80;;;12.70;99.90;;;;;;5094697;28;20209;-72
2022/05/30 10:28:14;;;;;;;5.07;2.03;;;12.70;99.90;;;;;;5095602;28;20575;-72
2022/05/30 10:30:24;;;;;;;5.47;1.93;;;13.00;99.90;;;;;;5094658;28;20231;-72
2022/05/30 10:33:04;;;;;;;6.87;1.90;;;13.00;98.20;;;;;;5094847;28;20193;-72
2022/05/30 10:35:38;;;;;;;5.17;1.60;;;12.90;99.30;;;;;;5095127;28;20640;-72
2022/05/30 10:38:28;;;;;;;4.97;1.60;;;13.10;96.70;;;;;;5095132;28;20232;-71
2022/05/30 10:41:06;;;;;;;5.90;2.10;;;13.00;95.70;;;;;;5094625;28;20216;-72
2022/05/30 10:43:43;;;;;;;7.17;1.70;;;13.10;97.80;;;;;;5094763;28;20197;-71
2022/05/30 10:46:14;;;;;;;7.60;1.97;;;13.00;96.20;;;;;;5076283;28;20221;-72
2022/05/30 10:48:45;;;;;;;5.93;1.77;;;13.20;99.30;;;;;;5094426;28;20304;-72
2022/05/30 10:51:17;;;;;;;4.57;1.40;;;13.00;95.80;;;;;;5094774;28;20213;-72
2022/05/30 10:53:53;;;;;;;5.43;1.80;;;12.90;92.70;;;;;;5094608;28;20288;-72
2022/05/30 10:56:23;;;;;;;6.70;1.60;;;12.80;95.00;;;;;;5094322;28;20208;-72
2022/05/30 10:58:58;;;;;;;3.27;1.50;;;12.70;95.10;;;;;;5093577;28;20206;-72
2022/05/30 11:01:37;;;;;;;4.67;1.40;;;12.80;96.80;;;;;;5094228;28;20204;-72
2022/05/30 11:04:17;;;;;;;4.97;1.37;;;12.80;96.70;;;;;;5094661;28;20308;-72
2022/05/30 11:06:46;;;;;;;5.57;1.73;;;12.60;95.70;;;;;;5076326;28;20237;-72
2022/05/30 11:09:21;;;;;;;6.73;1.90;;;12.70;95.90;;;;;;5094103;28;20624;-72
2022/05/30 11:11:52;;;;;;;6.37;1.77;;;12.80;96.20;;;;;;5094403;28;20212;-72
2022/05/30 11:14:27;;;;;;;8.10;2.00;;;12.90;96.50;;;;;;5094290;28;20205;-72
2022/05/30 11:16:59;;;;;;;4.83;1.80;;;13.10;95.60;;;;;;5094505;28;20326;-71
2022/05/30 11:19:35;;;;;;;4.97;1.43;;;13.10;92.20;;;;;;5093343;28;20209;-72
2022/05/30 11:22:06;;;;;;;7.30;2.10;;;13.40;91.40;;;;;;5094287;28;20262;-72
2022/05/30 11:24:37;;;;;;;7.23;1.90;;;13.60;91.50;;;;;;5094561;28;20574;-72
2022/05/30 11:27:29;;;;;;;6.23;1.23;;;13.50;86.90;;;;;;5093874;28;20258;-71
2022/05/30 11:30:42;;;;;;;8.57;1.50;;;13.90;81.70;;;;;;5093533;28;20660;-72
2022/05/30 11:33:39;;;;;;;4.77;1.60;;;13.90;75.70;;;;;;5074027;28;20202;-72
2022/05/30 11:36:22;;;;;;;5.63;1.63;;;13.90;79.80;;;;;;5070076;28;20635;-72
2022/05/30 11:39:04;;;;;;;2.87;1.30;;;13.80;79.20;;;;;;5093410;28;20557;-72
2022/05/30 11:41:47;;;;;;;5.93;1.40;;;14.00;82.70;;;;;;5075721;28;20243;-72
2022/05/30 11:44:51;;;;;;;5.67;1.63;;;13.70;80.30;;;;;;5093952;28;20225;-72
2022/05/30 11:47:40;;;;;;;5.27;1.80;;;13.50;90.10;;;;;;5093716;28;20205;-72
2022/05/30 11:50:20;;;;;;;2.40;1.23;;;13.40;85.80;;;;;;5093027;28;20897;-72
2022/05/30 11:53:14;;;;;;;7.17;1.80;;;13.70;86.00;;;;;;5093607;28;20222;-72
2022/05/30 11:55:48;;;;;;;7.70;1.60;;;13.70;87.00;;;;;;5077544;28;20202;-72
2022/05/30 11:58:26;;;;;;;2.50;1.13;;;13.70;87.50;;;;;;5093457;28;20218;-72
2022/05/30 12:00:54;;;;;;;6.23;1.43;;;13.70;87.30;;;;;;5092898;28;20235;-72
2022/05/30 12:03:45;;;;;;;7.53;1.83;;;13.70;88.40;;;;;;5093143;28;20186;-72
2022/05/30 12:06:37;;;;;;;3.13;1.40;;;13.60;90.20;;;;;;5046012;28;20264;-72
2022/05/30 12:09:36;;;;;;;5.03;1.73;;;13.40;89.80;;;;;;5091589;28;20198;-72
2022/05/30 12:12:30;;;;;;;3.97;1.50;;;13.30;89.60;;;;;;5093138;28;20534;-72
2022/05/30 12:15:25;;;;;;;5.60;2.90;;;13.40;91.60;;;;;;5089106;28;20212;-72
2022/05/30 12:24:22;;;;;;;3.97;1.60;;;13.20;89.60;;;;;;5092607;28;20192;-72
2022/05/30 12:27:00;;;;;;;5.87;2.00;;;13.40;90.30;;;;;;5092746;28;20209;-72
2022/05/30 12:29:49;;;;;;;3.87;1.20;;;13.40;90.80;;;;;;5092403;28;20212;-72
2022/05/30 12:32:54;;;;;;;3.10;1.17;;;13.60;91.00;;;;;;5085443;28;20215;-72
2022/05/30 12:35:26;;;;;;;3.63;1.37;;;13.30;90.80;;;;;;5092247;28;20189;-72
2022/05/30 12:38:07;;;;;;;3.93;1.47;;;13.40;87.70;;;;;;5091516;28;20657;-72
2022/05/30 12:40:39;;;;;;;6.77;1.87;;;13.70;91.60;;;;;;5091064;28;20297;-72
2022/05/30 12:43:15;;;;;;;5.60;1.73;;;13.90;91.00;;;;;;5093142;28;20201;-72
2022/05/30 12:45:46;;;;;;;3.97;1.20;;;13.90;89.10;;;;;;5092009;28;20316;-72
2022/05/30 12:48:19;;;;;;;1.90;1.10;;;14.10;84.90;;;;;;5087582;28;20205;-80
2022/05/30 12:51:13;;;;;;;4.50;1.37;;;14.30;84.30;;;;;;5081676;28;20723;-78
2022/05/30 12:54:27;;;;;;;2.63;1.20;;;14.10;82.20;;;;;;5080857;28;20208;-82
2022/05/30 12:57:36;;;;;;;5.00;1.70;;;14.30;73.10;;;;;;5086448;28;20655;-78
2022/05/30 13:00:15;;;;;;;6.90;2.20;;;14.30;70.90;;;;;;5059933;28;20205;-77
2022/05/30 13:03:15;;;;;;;2.63;1.20;;;14.40;71.70;;;;;;5088841;28;20205;-79
2022/05/30 13:05:59;;;;;;;3.37;1.60;;;14.20;70.10;;;;;;5079986;28;20233;-78
2022/05/30 13:09:03;;;;;;;2.03;1.37;;;14.30;69.10;;;;;;5087100;28;20202;-78
2022/05/30 13:12:19;;;;;;;4.00;1.37;;;14.40;68.30;;;;;;5088958;28;20292;-78
2022/05/30 13:15:19;;;;;;;3.37;1.20;;;14.30;70.80;;;;;;5087357;28;20662;-78
2022/05/30 13:17:53;;;;;;;3.40;1.50;;;14.50;72.40;;;;;;5083028;28;20578;-78
2022/05/30 13:20:24;;;;;;;2.43;1.50;;;14.50;69.80;;;;;;5085374;28;20711;-78
2022/05/30 13:22:55;;;;;;;1.57;0.93;;;14.40;69.30;;;;;;5092380;28;20573;-78
2022/05/30 13:25:27;;;;;;;1.40;1.10;;;14.50;63.90;;;;;;5089792;28;20758;-78
2022/05/30 13:27:55;;;;;;;3.13;1.30;;;14.50;64.20;;;;;;5092667;28;20206;-78
2022/05/30 13:30:26;;;;;;;3.07;1.00;;;14.60;63.20;;;;;;5088958;28;20212;-78
2022/05/30 13:32:53;;;;;;;3.57;0.90;;;14.40;63.10;;;;;;5091268;28;20229;-78
2022/05/30 13:35:25;;;;;;;2.43;1.00;;;14.80;67.80;;;;;;5084230;28;20202;-78
2022/05/30 13:37:59;;;;;;;2.73;1.20;;;14.90;63.40;;;;;;5085350;28;20210;-78
2022/05/30 13:40:29;;;;;;;2.27;0.83;;;14.90;64.90;;;;;;5086173;28;20210;-78
2022/05/30 13:42:58;;;;;;;1.60;1.33;;;15.00;63.00;;;;;;5085442;28;20201;-78